Time;durP1;ratioP1;P1;durP2;ratioP2;P2;SDS_P1;SDS_P2;PMS_P1;PMS_P2;Temp;Humidity;BMP_temperature;BMP_pressure;BME280_temperature;BME280_humidity;BME280_pressure;Samples;Min_cycle;Max_cycle;Signal;HPM_P1;HPM_P2
2022/05/14 00:00:12;;;;;;;;;;;;;;;20.13;44.89;102040.00;6155029;23;20237;-74
2022/05/14 00:02:37;;;;;;;;;;;;;;;20.14;44.81;102045.22;6155049;23;19909;-75
2022/05/14 00:05:03;;;;;;;;;;;;;;;20.12;44.89;102046.06;6154744;23;19919;-73
2022/05/14 00:07:28;;;;;;;;;;;;;;;20.13;44.98;102048.69;6128528;23;19955;-74
2022/05/14 00:09:53;;;;;;;;;;;;;;;20.14;44.91;102046.94;6155143;23;19912;-73
2022/05/14 00:15:03;;;;;;;;;;;;;;;20.16;44.80;102042.59;6155306;23;19916;-79
2022/05/14 00:17:28;;;;;;;;;;;;;;;20.14;44.98;102042.63;6156023;23;19912;-78
2022/05/14 00:19:53;;;;;;;;;;;;;;;20.14;44.96;102042.63;6129905;23;20412;-79
2022/05/14 00:22:18;;;;;;;;;;;;;;;20.13;44.98;102038.25;6128944;23;20306;-79
2022/05/14 00:24:44;;;;;;;;;;;;;;;20.11;44.98;102033.91;6131342;23;19912;-78
2022/05/14 00:27:09;;;;;;;;;;;;;;;20.16;44.95;102036.50;6131247;23;19921;-79
2022/05/14 00:29:34;;;;;;;;;;;;;;;20.13;45.00;102040.84;6130937;23;19999;-79
2022/05/14 00:32:00;;;;;;;;;;;;;;;20.16;44.93;102045.22;6131021;23;19912;-79
2022/05/14 00:34:25;;;;;;;;;;;;;;;20.16;45.06;102036.50;6158121;23;19915;-81
2022/05/14 00:36:50;;;;;;;;;;;;;;;20.14;45.09;102033.88;6131116;23;20322;-81
2022/05/14 00:39:15;;;;;;;;;;;;;;;20.14;45.01;102042.63;6130966;23;19995;-81
2022/05/14 00:41:45;;;;;;;;;;;;;;;20.19;45.06;102044.34;6130717;23;19920;-80
2022/05/14 00:44:10;;;;;;;;;;;;;;;20.23;44.90;102048.69;6130762;23;19916;-80
2022/05/14 00:46:40;;;;;;;;;;;;;;;20.20;44.83;102052.19;6130619;23;19916;-81
2022/05/14 00:49:05;;;;;;;;;;;;;;;20.20;45.00;102046.09;6130415;23;19909;-79
2022/05/14 00:51:30;;;;;;;;;;;;;;;20.20;45.09;102044.34;6157155;23;20052;-80
2022/05/14 00:53:59;;;;;;;;;;;;;;;20.22;44.99;102049.56;6130851;23;19913;-79
2022/05/14 00:56:27;;;;;;;;;;;;;;;20.22;44.96;102046.97;6156933;23;20330;-80
2022/05/14 00:59:05;;;;;;;;;;;;;;;20.23;44.91;102039.13;6156739;23;19968;-78
2022/05/14 01:01:30;;;;;;;;;;;;;;;20.21;45.03;102045.19;6158706;23;20051;-79
2022/05/14 01:03:55;;;;;;;;;;;;;;;20.19;44.89;102049.59;6156570;23;20314;-79
2022/05/14 01:06:22;;;;;;;;;;;;;;;20.12;45.15;102057.44;6156259;23;19959;-79
2022/05/14 01:08:48;;;;;;;;;;;;;;;20.13;45.05;102059.16;6156406;23;19917;-81
2022/05/14 01:11:14;;;;;;;;;;;;;;;20.14;45.18;102049.56;6105818;23;19963;-80
2022/05/14 01:13:39;;;;;;;;;;;;;;;20.17;45.01;102046.97;6156498;23;20241;-79
2022/05/14 01:16:04;;;;;;;;;;;;;;;20.20;45.13;102044.34;6130017;23;19995;-79
2022/05/14 01:18:33;;;;;;;;;;;;;;;20.23;44.99;102048.69;6156790;23;20361;-79
2022/05/14 01:21:08;;;;;;;;;;;;;;;20.16;45.20;102047.81;6156580;23;20357;-79
2022/05/14 01:26:31;;;;;;;;;;;;;;;20.15;45.17;102053.94;6156426;23;19919;-79
2022/05/14 01:29:19;;;;;;;;;;;;;;;20.12;45.14;102046.06;6156494;23;19908;-79
2022/05/14 01:31:44;;;;;;;;;;;;;;;20.11;45.35;102044.34;6130143;23;19912;-79
2022/05/14 01:34:12;;;;;;;;;;;;;;;20.10;45.31;102050.47;6129887;23;20266;-80
2022/05/14 01:36:38;;;;;;;;;;;;;;;20.05;45.57;102052.19;6156261;23;19909;-80
2022/05/14 01:39:04;;;;;;;;;;;;;;;20.08;45.46;102053.06;6156338;23;19920;-79
2022/05/14 01:41:29;;;;;;;;;;;;;;;20.11;45.30;102054.81;6130003;23;20242;-79
2022/05/14 01:43:55;;;;;;;;;;;;;;;20.12;45.28;102061.75;6105884;23;20348;-79
2022/05/14 01:46:20;;;;;;;;;;;;;;;20.10;45.25;102064.41;6130079;23;20286;-79
2022/05/14 01:48:46;;;;;;;;;;;;;;;20.09;45.30;102065.25;6130372;23;19913;-79
2022/05/14 01:51:11;;;;;;;;;;;;;;;20.06;45.54;102059.19;6156145;23;19916;-80
2022/05/14 01:53:37;;;;;;;;;;;;;;;20.08;45.47;102066.13;6130168;23;19916;-79
2022/05/14 01:56:02;;;;;;;;;;;;;;;20.10;45.32;102066.16;6156234;23;20281;-79
2022/05/14 01:58:36;;;;;;;;;;;;;;;20.10;45.32;102066.16;6130291;23;19913;-79
2022/05/14 02:01:09;;;;;;;;;;;;;;;20.06;45.46;102067.00;6130183;23;20000;-81
2022/05/14 02:03:35;;;;;;;;;;;;;;;20.06;45.51;102054.81;6130295;23;19909;-81
2022/05/14 02:06:00;;;;;;;;;;;;;;;20.07;45.48;102063.50;6156010;23;19991;-82
2022/05/14 02:08:26;;;;;;;;;;;;;;;20.04;45.52;102067.00;6107811;23;19950;-84
2022/05/14 02:10:51;;;;;;;;;;;;;;;20.02;45.65;102070.50;6157346;23;20027;-82
2022/05/14 02:13:17;;;;;;;;;;;;;;;20.01;45.52;102068.75;6156331;23;19984;-83
2022/05/14 02:15:43;;;;;;;;;;;;;;;20.02;45.47;102067.88;6156054;23;19909;-81
2022/05/14 02:18:08;;;;;;;;;;;;;;;20.04;45.41;102068.75;6130384;23;20289;-81
2022/05/14 02:20:34;;;;;;;;;;;;;;;20.01;45.43;102053.94;6155769;23;19917;-81
2022/05/14 02:22:59;;;;;;;;;;;;;;;20.01;45.51;102064.41;6105120;23;19913;-81
2022/05/14 02:25:24;;;;;;;;;;;;;;;19.96;45.53;102066.13;6129766;23;19939;-81
2022/05/14 02:27:49;;;;;;;;;;;;;;;19.97;45.68;102067.00;6104970;23;19931;-81
2022/05/14 02:30:15;;;;;;;;;;;;;;;20.00;45.37;102060.03;6129745;23;19948;-81
2022/05/14 02:32:40;;;;;;;;;;;;;;;20.00;45.52;102065.25;6155947;23;19993;-81
2022/05/14 02:35:05;;;;;;;;;;;;;;;19.99;45.36;102060.03;6129560;23;19992;-81
2022/05/14 02:37:31;;;;;;;;;;;;;;;19.96;45.61;102066.13;6156043;23;19917;-81
2022/05/14 02:39:56;;;;;;;;;;;;;;;19.94;45.50;102066.13;6155451;23;19915;-78
2022/05/14 02:42:22;;;;;;;;;;;;;;;19.97;45.40;102072.22;6155511;23;19963;-79
2022/05/14 02:44:47;;;;;;;;;;;;;;;19.95;45.39;102074.84;6129108;23;20341;-79
2022/05/14 02:47:12;;;;;;;;;;;;;;;19.95;45.47;102069.63;6129286;23;19920;-78
2022/05/14 02:49:37;;;;;;;;;;;;;;;19.92;45.54;102069.59;6155576;23;19972;-79
2022/05/14 02:52:03;;;;;;;;;;;;;;;19.90;45.67;102072.25;6155850;23;20326;-79
2022/05/14 02:54:28;;;;;;;;;;;;;;;19.91;45.42;102073.09;6129293;23;19908;-79
2022/05/14 02:56:54;;;;;;;;;;;;;;;19.92;45.51;102082.66;6155843;23;19999;-79
2022/05/14 02:59:19;;;;;;;;;;;;;;;19.87;45.58;102077.44;6155729;23;19975;-79
2022/05/14 03:01:50;;;;;;;;;;;;;;;19.87;45.66;102080.06;6129445;23;19913;-79
2022/05/14 03:04:24;;;;;;;;;;;;;;;19.87;45.47;102071.34;6129427;23;19982;-79
2022/05/14 03:06:50;;;;;;;;;;;;;;;19.89;45.52;102067.00;6155078;23;20321;-79
2022/05/14 03:09:15;;;;;;;;;;;;;;;19.88;45.52;102073.97;6129471;23;20289;-79
2022/05/14 03:11:40;;;;;;;;;;;;;;;19.87;45.45;102080.06;6104805;23;19912;-79
2022/05/14 03:14:06;;;;;;;;;;;;;;;19.87;45.54;102079.19;6155413;23;20281;-80
2022/05/14 03:16:31;;;;;;;;;;;;;;;19.88;45.61;102076.59;6129212;23;19909;-80
2022/05/14 03:18:57;;;;;;;;;;;;;;;19.87;45.73;102084.41;6129067;23;20282;-80
2022/05/14 03:21:22;;;;;;;;;;;;;;;19.85;45.61;102083.53;6155617;23;19920;-80
2022/05/14 03:23:47;;;;;;;;;;;;;;;19.85;45.47;102075.72;6105164;23;20246;-80
2022/05/14 03:26:12;;;;;;;;;;;;;;;19.86;45.58;102067.00;6155058;23;20253;-80
2022/05/14 03:28:38;;;;;;;;;;;;;;;19.83;45.61;102070.47;6129185;23;19960;-80
2022/05/14 03:31:03;;;;;;;;;;;;;;;19.81;45.73;102071.34;6129214;23;19971;-81
2022/05/14 03:33:28;;;;;;;;;;;;;;;19.83;45.58;102075.69;6155606;23;19915;-79
2022/05/14 03:35:53;;;;;;;;;;;;;;;19.81;45.63;102079.19;6155534;23;19917;-80
2022/05/14 03:38:19;;;;;;;;;;;;;;;19.78;45.62;102082.66;6129240;23;19912;-80
2022/05/14 03:40:44;;;;;;;;;;;;;;;19.82;45.53;102078.34;6128918;23;20002;-80
2022/05/14 03:43:09;;;;;;;;;;;;;;;19.82;45.53;102076.59;6129283;23;19909;-80
2022/05/14 03:45:35;;;;;;;;;;;;;;;19.81;45.51;102068.75;6104657;23;19995;-80
2022/05/14 03:48:00;;;;;;;;;;;;;;;19.81;45.61;102073.97;6128807;23;19991;-80
2022/05/14 03:50:25;;;;;;;;;;;;;;;19.79;45.70;102079.16;6128953;23;19932;-80
2022/05/14 03:52:50;;;;;;;;;;;;;;;19.81;45.65;102084.41;6128890;23;19912;-80
2022/05/14 03:55:16;;;;;;;;;;;;;;;19.79;45.52;102092.22;6128983;23;19970;-80
2022/05/14 03:57:41;;;;;;;;;;;;;;;19.81;45.71;102094.84;6155597;23;20234;-80
2022/05/14 04:00:07;;;;;;;;;;;;;;;19.82;45.54;102086.16;6131103;23;19912;-80
2022/05/14 04:02:32;;;;;;;;;;;;;;;19.81;45.56;102077.44;6157017;23;19931;-80
2022/05/14 04:04:58;;;;;;;;;;;;;;;19.80;45.50;102074.84;6106267;23;19913;-80
2022/05/14 04:07:25;;;;;;;;;;;;;;;19.81;45.55;102085.28;6132140;23;20113;-80
2022/05/14 04:09:51;;;;;;;;;;;;;;;19.81;45.57;102092.25;6130859;23;19912;-80
2022/05/14 04:12:16;;;;;;;;;;;;;;;19.78;45.54;102094.88;6157513;23;19913;-80
2022/05/14 04:14:42;;;;;;;;;;;;;;;19.82;45.58;102094.00;6156866;23;19963;-80
2022/05/14 04:17:07;;;;;;;;;;;;;;;19.82;45.48;102100.09;6106702;23;19913;-80
2022/05/14 04:19:32;;;;;;;;;;;;;;;19.86;45.53;102099.22;6157471;23;19943;-80
2022/05/14 04:21:58;;;;;;;;;;;;;;;19.87;45.54;102087.91;6156940;23;19991;-81
2022/05/14 04:24:23;;;;;;;;;;;;;;;19.86;45.31;102091.41;6157255;23;19913;-80
2022/05/14 04:26:48;;;;;;;;;;;;;;;19.84;45.51;102100.09;6130648;23;19912;-80
2022/05/14 04:29:13;;;;;;;;;;;;;;;19.82;45.54;102113.16;6130329;23;19912;-80
2022/05/14 04:31:42;;;;;;;;;;;;;;;19.82;45.50;102115.75;6106496;23;19944;-79
2022/05/14 04:34:07;;;;;;;;;;;;;;;19.87;45.49;102113.16;6108496;23;19913;-80
2022/05/14 04:36:32;;;;;;;;;;;;;;;19.90;45.45;102114.03;6158464;23;19980;-79
2022/05/14 04:38:58;;;;;;;;;;;;;;;19.92;45.50;102108.78;6132371;23;19970;-81
2022/05/14 04:41:25;;;;;;;;;;;;;;;19.92;45.41;102109.69;6158470;23;19916;-80
2022/05/14 04:43:51;;;;;;;;;;;;;;;19.91;45.51;102120.13;6158806;23;19920;-80
2022/05/14 04:46:16;;;;;;;;;;;;;;;19.94;45.49;102131.44;6158727;23;19912;-80
2022/05/14 04:48:41;;;;;;;;;;;;;;;19.98;45.39;102131.47;6133254;23;19912;-79
2022/05/14 04:51:07;;;;;;;;;;;;;;;20.00;45.35;102132.34;6132325;23;19971;-80
2022/05/14 04:53:32;;;;;;;;;;;;;;;20.02;45.35;102133.22;6158610;23;20321;-80
2022/05/14 04:55:57;;;;;;;;;;;;;;;20.08;45.04;102125.38;6108215;23;19939;-80
2022/05/14 04:58:22;;;;;;;;;;;;;;;20.15;45.11;102124.50;6158319;23;20234;-80
2022/05/14 05:00:48;;;;;;;;;;;;;;;20.25;44.87;102125.34;6132296;23;19935;-81
2022/05/14 05:03:19;;;;;;;;;;;;;;;20.39;44.72;102130.59;6132129;23;19976;-80
2022/05/14 05:05:52;;;;;;;;;;;;;;;20.60;44.08;102134.94;6158099;23;19923;-80
2022/05/14 05:08:18;;;;;;;;;;;;;;;20.68;43.92;102131.44;6127283;23;19968;-80
2022/05/14 05:10:44;;;;;;;;;;;;;;;20.82;43.72;102126.19;6128373;23;19909;-78
2022/05/14 05:13:13;;;;;;;;;;;;;;;20.99;43.37;102131.38;6128888;23;19963;-80
2022/05/14 05:15:38;;;;;;;;;;;;;;;21.13;43.09;102128.72;6126989;23;19916;-81
2022/05/14 05:18:04;;;;;;;;;;;;;;;21.25;43.20;102131.28;6128491;23;19916;-79
2022/05/14 05:20:30;;;;;;;;;;;;;;;21.36;42.97;102133.81;6127252;23;19913;-78
2022/05/14 05:22:55;;;;;;;;;;;;;;;21.48;42.71;102138.19;6128568;23;20009;-80
2022/05/14 05:25:20;;;;;;;;;;;;;;;21.59;42.57;102139.00;6102757;23;19920;-80
2022/05/14 05:27:45;;;;;;;;;;;;;;;21.73;42.30;102142.41;6126787;23;20227;-78
2022/05/14 05:30:11;;;;;;;;;;;;;;;21.86;42.11;102156.31;6129636;23;19932;-78
2022/05/14 05:32:37;;;;;;;;;;;;;;;21.94;42.16;102145.75;6127767;23;19917;-78
2022/05/14 05:35:03;;;;;;;;;;;;;;;22.00;42.04;102153.56;6126986;23;19924;-79
2022/05/14 05:37:28;;;;;;;;;;;;;;;22.04;41.98;102152.69;6128594;23;19909;-79
2022/05/14 05:39:53;;;;;;;;;;;;;;;22.09;42.09;102156.13;6128436;23;20337;-79
2022/05/14 05:42:19;;;;;;;;;;;;;;;22.15;41.75;102161.31;6127061;23;19935;-78
2022/05/14 05:44:45;;;;;;;;;;;;;;;22.25;41.83;102162.13;6126830;23;19917;-78
2022/05/14 05:47:10;;;;;;;;;;;;;;;22.36;41.70;102164.66;6128494;23;20235;-78
2022/05/14 05:49:37;;;;;;;;;;;;;;;22.47;41.17;102165.47;6128037;23;19917;-77
2022/05/14 05:52:03;;;;;;;;;;;;;;;22.56;41.05;102168.00;6126952;23;19984;-78
2022/05/14 05:57:12;;;;;;;;;;;;;;;22.78;40.45;102163.41;6128166;23;19961;-77
2022/05/14 05:59:37;;;;;;;;;;;;;;;22.83;40.47;102168.59;6126875;23;20278;-78
2022/05/14 06:02:03;;;;;;;;;;;;;;;22.88;40.23;102168.56;6128466;23;19964;-78
2022/05/14 06:04:28;;;;;;;;;;;;;;;23.04;39.92;102179.78;6128472;23;19952;-78
2022/05/14 06:06:54;;;;;;;;;;;;;;;23.15;39.86;102183.19;6140642;23;19927;-79
2022/05/14 06:09:20;;;;;;;;;;;;;;;23.30;39.57;102182.09;6131999;23;20309;-79
2022/05/14 06:11:45;;;;;;;;;;;;;;;23.40;39.36;102174.09;6158560;23;19916;-77
2022/05/14 06:14:12;;;;;;;;;;;;;;;23.41;39.09;102172.34;6109368;23;19917;-78
2022/05/14 06:16:37;;;;;;;;;;;;;;;23.43;39.03;102173.22;6157490;23;19912;-78
2022/05/14 06:19:03;;;;;;;;;;;;;;;23.50;39.04;102174.84;6107184;23;19923;-79
2022/05/14 06:21:28;;;;;;;;;;;;;;;23.76;38.19;102181.53;6157675;23;19915;-79
2022/05/14 06:23:54;;;;;;;;;;;;;;;24.15;37.38;102185.34;6107262;23;19992;-81
2022/05/14 06:26:19;;;;;;;;;;;;;;;24.40;37.09;102175.25;6157318;23;19917;-77
2022/05/14 06:28:44;;;;;;;;;;;;;;;24.26;36.92;102184.28;6158118;23;20286;-86
2022/05/14 06:31:10;;;;;;;;;;;;;;;23.85;37.77;102191.91;6107242;23;19912;-83
2022/05/14 06:33:35;;;;;;;;;;;;;;;24.17;37.47;102195.81;6107098;23;19960;-84
2022/05/14 06:36:00;;;;;;;;;;;;;;;24.32;37.11;102199.97;6107076;23;19912;-83
2022/05/14 06:38:26;;;;;;;;;;;;;;;23.97;37.81;102207.50;6107404;23;19913;-84
2022/05/14 06:40:52;;;;;;;;;;;;;;;23.80;38.08;102206.88;6107193;23;19979;-84
2022/05/14 06:43:17;;;;;;;;;;;;;;;23.51;39.03;102199.34;6157581;23;20314;-83
2022/05/14 06:45:43;;;;;;;;;;;;;;;22.63;40.89;102212.56;6131790;23;19920;-84
2022/05/14 06:48:09;;;;;;;;;;;;;;;21.87;42.88;102210.44;6131513;23;19916;-84
2022/05/14 06:50:39;;;;;;;;;;;;;;;21.58;43.96;102223.69;6131463;23;19940;-85
2022/05/14 06:53:06;;;;;;;;;;;;;;;21.44;44.33;102221.13;6131830;23;20054;-85
2022/05/14 06:55:35;;;;;;;;;;;;;;;21.48;44.21;102219.38;6135290;23;20238;-87
2022/05/14 06:58:00;;;;;;;;;;;;;;;21.42;44.74;102219.38;6131895;23;19932;-84
2022/05/14 07:00:26;;;;;;;;;;;;;;;21.47;45.24;102218.50;6132125;23;20322;-86
2022/05/14 07:02:52;;;;;;;;;;;;;;;21.52;45.16;102228.97;6132345;23;19959;-85
2022/05/14 07:08:01;;;;;;;;;;;;;;;21.55;44.49;102228.94;6157394;23;19928;-86
2022/05/14 07:10:28;;;;;;;;;;;;;;;21.53;44.47;102223.69;6131254;23;20242;-87
2022/05/14 07:12:55;;;;;;;;;;;;;;;21.54;44.16;102222.84;6106842;23;19920;-84
2022/05/14 07:15:20;;;;;;;;;;;;;;;21.50;43.81;102228.09;6132169;23;19948;-86
2022/05/14 07:17:45;;;;;;;;;;;;;;;21.43;43.86;102232.47;6131333;23;19917;-85
2022/05/14 07:20:11;;;;;;;;;;;;;;;21.43;44.22;102227.25;6131467;23;19908;-85
2022/05/14 07:22:36;;;;;;;;;;;;;;;21.52;44.03;102228.97;6106950;23;19916;-85
2022/05/14 07:25:01;;;;;;;;;;;;;;;21.59;43.61;102232.44;6107307;23;20032;-85
2022/05/14 07:27:27;;;;;;;;;;;;;;;21.63;43.49;102234.16;6131158;23;19913;-84
2022/05/14 07:29:52;;;;;;;;;;;;;;;21.63;43.29;102229.78;6131157;23;19908;-85
2022/05/14 07:32:18;;;;;;;;;;;;;;;21.59;43.25;102238.53;6131125;23;19908;-85
2022/05/14 07:34:44;;;;;;;;;;;;;;;21.61;42.70;102241.16;6131427;23;19909;-85
2022/05/14 07:37:13;;;;;;;;;;;;;;;21.58;42.45;102236.81;6131828;23;20348;-86
2022/05/14 07:39:44;;;;;;;;;;;;;;;21.57;42.29;102243.75;6132053;23;19908;-84
2022/05/14 07:42:13;;;;;;;;;;;;;;;21.61;42.22;102242.00;6131821;23;19908;-85
2022/05/14 07:44:40;;;;;;;;;;;;;;;21.60;42.09;102244.63;6157502;23;19909;-85
2022/05/14 07:47:07;;;;;;;;;;;;;;;21.57;41.90;102249.00;6157153;23;20045;-85
2022/05/14 07:49:32;;;;;;;;;;;;;;;21.58;41.85;102242.03;6131197;23;19920;-83
2022/05/14 07:51:58;;;;;;;;;;;;;;;21.60;41.70;102245.53;6134451;23;20381;-81
2022/05/14 07:54:23;;;;;;;;;;;;;;;21.61;41.56;102249.00;6158576;23;19920;-85
2022/05/14 07:56:49;;;;;;;;;;;;;;;21.60;41.45;102258.63;6131171;23;19909;-87
2022/05/14 07:59:15;;;;;;;;;;;;;;;21.50;41.58;102262.16;6106830;23;19916;-85
2022/05/14 08:01:40;;;;;;;;;;;;;;;21.48;41.20;102248.19;6131165;23;19909;-83
2022/05/14 08:04:06;;;;;;;;;;;;;;;21.48;41.35;102253.41;6157718;23;19963;-85
2022/05/14 08:06:31;;;;;;;;;;;;;;;21.51;41.27;102249.06;6106699;23;19999;-84
2022/05/14 08:08:57;;;;;;;;;;;;;;;21.53;41.29;102246.41;6106630;23;19912;-86
2022/05/14 08:11:22;;;;;;;;;;;;;;;21.45;41.05;102250.78;6131188;23;19909;-85
2022/05/14 08:13:47;;;;;;;;;;;;;;;21.44;41.18;102251.69;6131332;23;19912;-86
2022/05/14 08:16:13;;;;;;;;;;;;;;;21.48;40.88;102249.03;6107012;23;19987;-85
2022/05/14 08:18:38;;;;;;;;;;;;;;;21.51;40.87;102242.91;6157696;23;19917;-86
2022/05/14 08:26:31;;;;;;;;;;;;;;;21.23;40.38;102247.34;6135134;23;19924;-88
2022/05/14 08:28:56;;;;;;;;;;;;;;;21.32;40.38;102240.34;6157753;23;19908;-87
2022/05/14 08:31:22;;;;;;;;;;;;;;;21.30;39.94;102254.31;6157979;23;19908;-87
2022/05/14 08:33:47;;;;;;;;;;;;;;;21.32;39.82;102247.34;6112802;23;19963;-88
2022/05/14 08:36:12;;;;;;;;;;;;;;;21.37;39.53;102256.91;6107352;23;19912;-87
2022/05/14 08:38:37;;;;;;;;;;;;;;;21.38;39.14;102244.66;6131446;23;19948;-87
2022/05/14 08:41:03;;;;;;;;;;;;;;;21.37;38.92;102254.28;6106842;23;19924;-86
2022/05/14 08:43:33;;;;;;;;;;;;;;;21.34;38.85;102256.06;6107160;23;19919;-86
2022/05/14 08:45:59;;;;;;;;;;;;;;;21.32;38.96;102249.94;6132749;23;19916;-86
2022/05/14 08:48:24;;;;;;;;;;;;;;;21.32;38.98;102258.66;6108432;23;19928;-87
2022/05/14 08:50:55;;;;;;;;;;;;;;;21.23;38.97;102258.69;6159732;23;19908;-86
2022/05/14 08:53:23;;;;;;;;;;;;;;;21.25;39.23;102256.06;6135052;23;19908;-84
2022/05/14 08:56:07;;;;;;;;;;;;;;;21.31;39.54;102256.91;6135268;23;20380;-85
2022/05/14 08:58:44;;;;;;;;;;;;;;;21.37;39.22;102250.81;6162480;23;19908;-86
2022/05/14 09:01:12;;;;;;;;;;;;;;;21.35;39.04;102252.56;6135945;23;20321;-83
2022/05/14 09:03:41;;;;;;;;;;;;;;;21.40;39.28;102252.53;6135595;23;19909;-86
2022/05/14 09:06:07;;;;;;;;;;;;;;;21.28;39.26;102248.22;6134764;23;19913;-86
2022/05/14 09:08:32;;;;;;;;;;;;;;;21.28;39.44;102262.16;6109064;23;19999;-85
2022/05/14 09:11:05;;;;;;;;;;;;;;;21.29;39.86;102258.66;6133271;23;19995;-86
2022/05/14 09:13:40;;;;;;;;;;;;;;;21.35;40.55;102266.50;6134833;23;19912;-86
2022/05/14 09:16:06;;;;;;;;;;;;;;;21.53;39.94;102255.13;6136562;23;19959;-81
2022/05/14 09:18:43;;;;;;;;;;;;;;;21.57;38.61;102256.84;6159043;23;19952;-85
2022/05/14 09:21:15;;;;;;;;;;;;;;;21.70;38.90;102257.69;6132367;23;19912;-84
2022/05/14 09:23:46;;;;;;;;;;;;;;;21.66;39.09;102255.09;6132249;23;19908;-82
2022/05/14 09:26:14;;;;;;;;;;;;;;;21.37;42.62;102259.53;6132561;23;19908;-80
2022/05/14 09:28:50;;;;;;;;;;;;;;;21.30;49.72;102259.56;6133005;23;19913;-82
2022/05/14 09:31:27;;;;;;;;;;;;;;;21.20;48.86;102260.44;6132581;23;20218;-83
2022/05/14 09:34:00;;;;;;;;;;;;;;;21.11;50.62;102264.81;6132145;23;19924;-80
2022/05/14 09:36:28;;;;;;;;;;;;;;;20.96;50.19;102275.31;6132040;23;20257;-78
2022/05/14 09:39:15;;;;;;;;;;;;;;;21.00;48.86;102273.56;6131784;23;19908;-78
2022/05/14 09:41:44;;;;;;;;;;;;;;;20.93;50.95;102272.72;6131858;23;19959;-79
2022/05/14 09:44:15;;;;;;;;;;;;;;;20.73;51.50;102260.50;6132073;23;20241;-78
2022/05/14 09:46:40;;;;;;;;;;;;;;;20.81;50.91;102268.34;6131741;23;20234;-79
2022/05/14 09:49:08;;;;;;;;;;;;;;;20.84;50.75;102270.06;6132236;23;19920;-79
2022/05/14 09:51:36;;;;;;;;;;;;;;;20.86;49.88;102265.72;6131847;23;19909;-79
2022/05/14 09:54:19;;;;;;;;;;;;;;;20.80;50.51;102270.97;6131822;23;19908;-79
2022/05/14 09:56:50;;;;;;;;;;;;;;;20.62;46.38;102271.81;6157672;23;19915;-78
2022/05/14 09:59:35;;;;;;;;;;;;;;;20.69;49.95;102270.97;6133884;23;19916;-79
2022/05/14 10:02:11;;;;;;;;;;;;;;;20.56;50.87;102277.91;6158038;23;19932;-79
2022/05/14 10:04:52;;;;;;;;;;;;;;;20.57;50.50;102295.34;6132022;23;19952;-79
2022/05/14 10:07:31;;;;;;;;;;;;;;;20.67;49.85;102286.66;6131530;23;19970;-79
2022/05/14 10:10:12;;;;;;;;;;;;;;;20.67;49.48;102278.81;6178197;23;19945;-86
2022/05/14 10:12:45;;;;;;;;;;;;;;;20.59;49.42;102280.53;6157453;23;19921;-83
2022/05/14 10:15:29;;;;;;;;;;;;;;;20.62;49.69;102277.03;6156774;23;19893;-84
2022/05/14 10:18:12;;;;;;;;;;;;;;;20.63;50.00;102287.53;6157103;23;19920;-84
2022/05/14 10:20:40;;;;;;;;;;;;;;;20.63;48.23;102284.03;6155068;23;19925;-83
2022/05/14 10:29:07;;;;;;;;;;;;;;;20.40;49.56;102273.50;6161949;23;19939;-79
2022/05/14 10:31:47;;;;;;;;;;;;;;;20.50;48.24;102283.13;6135202;23;19915;-79
2022/05/14 10:34:15;;;;;;;;;;;;;;;20.59;48.38;102283.16;6135491;23;19954;-79
2022/05/14 10:36:58;;;;;;;;;;;;;;;20.53;48.86;102280.50;6136049;23;19909;-79
2022/05/14 10:39:44;;;;;;;;;;;;;;;20.54;48.60;102272.66;6135388;23;19925;-79
2022/05/14 10:42:19;;;;;;;;;;;;;;;20.60;49.54;102274.44;6159882;23;19908;-79
2022/05/14 10:44:51;;;;;;;;;;;;;;;20.63;48.29;102284.91;6158562;23;19913;-79
2022/05/14 10:47:17;;;;;;;;;;;;;;;20.63;48.96;102279.66;6134892;23;19913;-79
2022/05/14 10:49:46;;;;;;;;;;;;;;;20.65;48.13;102283.16;6160198;23;19916;-79
2022/05/14 10:52:15;;;;;;;;;;;;;;;20.64;48.03;102276.16;6134366;23;19909;-79
2022/05/14 10:54:41;;;;;;;;;;;;;;;20.66;48.05;102276.19;6134379;23;19908;-79
2022/05/14 10:57:13;;;;;;;;;;;;;;;20.52;48.29;102284.00;6133680;23;19909;-79
2022/05/14 10:59:50;;;;;;;;;;;;;;;20.57;48.68;102292.75;6134421;23;19908;-79
2022/05/14 11:02:28;;;;;;;;;;;;;;;20.56;48.46;102290.97;6135194;23;19967;-79
2022/05/14 11:04:53;;;;;;;;;;;;;;;20.54;47.55;102282.25;6134990;23;20233;-79
2022/05/14 11:07:28;;;;;;;;;;;;;;;20.53;48.67;102272.66;6133700;23;19927;-79
2022/05/14 11:09:53;;;;;;;;;;;;;;;20.53;49.31;102280.50;6133600;23;19913;-79
2022/05/14 11:12:18;;;;;;;;;;;;;;;20.52;47.10;102284.88;6134406;23;19912;-79
2022/05/14 11:14:45;;;;;;;;;;;;;;;20.50;48.51;102293.56;6133990;23;20264;-79
2022/05/14 11:17:30;;;;;;;;;;;;;;;20.52;48.61;102287.47;6134056;23;19904;-79
2022/05/14 11:20:01;;;;;;;;;;;;;;;20.59;48.70;102288.38;6133362;23;19994;-79
2022/05/14 11:22:30;;;;;;;;;;;;;;;20.52;48.52;102282.25;6159494;23;20340;-79
2022/05/14 11:24:56;;;;;;;;;;;;;;;20.58;47.70;102291.00;6158882;23;19975;-78
2022/05/14 11:27:35;;;;;;;;;;;;;;;20.54;49.77;102284.88;6112947;23;20343;-79
2022/05/14 11:30:06;;;;;;;;;;;;;;;20.57;49.07;102291.84;6179695;23;19917;-84
2022/05/14 11:32:44;;;;;;;;;;;;;;;20.58;48.90;102285.75;6146002;23;19916;-78
2022/05/14 11:35:09;;;;;;;;;;;;;;;20.59;48.15;102285.78;6159597;23;19958;-78
2022/05/14 11:37:36;;;;;;;;;;;;;;;20.64;47.44;102288.38;6159361;23;19986;-78
2022/05/14 11:40:03;;;;;;;;;;;;;;;20.65;46.72;102284.91;6138825;23;19909;-84
2022/05/14 11:42:29;;;;;;;;;;;;;;;20.66;47.66;102292.75;6164906;23;19924;-78
2022/05/14 11:44:56;;;;;;;;;;;;;;;20.57;47.95;102294.47;6133450;23;20337;-78
2022/05/14 11:47:42;;;;;;;;;;;;;;;20.58;46.19;102281.44;6133147;23;19912;-79
2022/05/14 11:50:09;;;;;;;;;;;;;;;20.58;46.78;102280.53;6133837;23;19912;-78
2022/05/14 11:52:47;;;;;;;;;;;;;;;20.58;46.78;102286.66;6134327;23;19936;-77
2022/05/14 11:55:15;;;;;;;;;;;;;;;20.60;46.95;102292.75;6133046;23;19909;-77
2022/05/14 11:57:46;;;;;;;;;;;;;;;20.64;46.73;102288.38;6133255;23;19940;-78
2022/05/14 12:00:22;;;;;;;;;;;;;;;20.63;45.83;102287.53;6134501;23;19956;-78
2022/05/14 12:03:02;;;;;;;;;;;;;;;20.72;45.46;102286.66;6133832;23;19915;-78
2022/05/14 12:05:40;;;;;;;;;;;;;;;20.75;45.31;102286.63;6132826;23;19987;-78
2022/05/14 12:08:08;;;;;;;;;;;;;;;20.79;45.72;102298.84;6132460;23;19948;-78
2022/05/14 12:10:47;;;;;;;;;;;;;;;20.80;45.92;102297.13;6132739;23;19915;-79
2022/05/14 12:13:21;;;;;;;;;;;;;;;20.80;46.39;102295.38;6159384;23;19916;-78
2022/05/14 12:15:48;;;;;;;;;;;;;;;20.80;45.50;102294.50;6132546;23;19991;-77
2022/05/14 12:18:14;;;;;;;;;;;;;;;20.80;44.62;102289.28;6132500;23;19948;-78
2022/05/14 12:20:40;;;;;;;;;;;;;;;20.81;45.10;102285.78;6134510;23;20242;-78
2022/05/14 12:23:11;;;;;;;;;;;;;;;20.84;45.06;102294.50;6134153;23;19915;-78
2022/05/14 12:25:36;;;;;;;;;;;;;;;20.89;45.76;102302.34;6133562;23;19912;-78
2022/05/14 12:28:02;;;;;;;;;;;;;;;20.93;44.66;102296.25;6133742;23;19912;-77
2022/05/14 12:33:18;;;;;;;;;;;;;;;20.99;43.59;102298.88;6160991;23;19996;-77
2022/05/14 12:35:54;;;;;;;;;;;;;;;21.02;43.98;102300.63;6134118;23;20286;-78
2022/05/14 12:38:27;;;;;;;;;;;;;;;20.94;44.59;102301.47;6160312;23;20393;-78
2022/05/14 12:40:53;;;;;;;;;;;;;;;20.93;43.83;102293.63;6134041;23;19916;-78
2022/05/14 12:43:18;;;;;;;;;;;;;;;20.96;43.94;102299.72;6134085;23;19909;-77
2022/05/14 12:45:45;;;;;;;;;;;;;;;20.92;43.88;102292.75;6134107;23;20381;-77
2022/05/14 12:48:12;;;;;;;;;;;;;;;20.90;44.64;102297.09;6133423;23;19921;-78
2022/05/14 12:50:41;;;;;;;;;;;;;;;20.95;42.69;102290.16;6133594;23;20325;-78
2022/05/14 12:53:09;;;;;;;;;;;;;;;21.02;43.25;102292.75;6160260;23;19909;-78
2022/05/14 12:55:36;;;;;;;;;;;;;;;21.03;42.62;102295.34;6160201;23;19922;-76
2022/05/14 12:58:02;;;;;;;;;;;;;;;20.81;45.57;102293.63;6135571;23;19958;-78
2022/05/14 13:00:31;;;;;;;;;;;;;;;20.44;51.62;102293.56;6136295;23;19980;-80
2022/05/14 13:03:12;;;;;;;;;;;;;;;20.02;57.45;102297.81;6144043;23;19904;-81